createdAt,value
2018-08-10T00:00:39.628Z,29.92
2018-08-10T00:01:20.360Z,29.87
2018-08-10T00:02:01.098Z,29.92
2018-08-10T00:02:41.878Z,29.83
2018-08-10T00:03:22.711Z,29.9
2018-08-10T00:04:03.390Z,29.85
2018-08-10T00:04:44.126Z,29.8
2018-08-10T00:05:24.950Z,29.85
2018-08-10T00:06:05.774Z,29.86
2018-08-10T00:06:46.591Z,29.82
2018-08-10T00:07:27.345Z,29.73
2018-08-10T00:08:08.085Z,29.7
2018-08-10T00:08:48.970Z,29.78
2018-08-10T00:09:29.676Z,29.67
2018-08-10T00:10:10.411Z,29.73
2018-08-10T00:10:51.168Z,29.68
2018-08-10T00:11:31.963Z,29.73
2018-08-10T00:12:12.800Z,29.76
2018-08-10T00:12:53.658Z,29.71
2018-08-10T00:13:34.400Z,29.73
2018-08-10T00:14:15.147Z,29.73
2018-08-10T00:14:55.929Z,29.78
2018-08-10T00:15:36.712Z,29.73
2018-08-10T00:16:17.540Z,29.78
2018-08-10T00:16:58.304Z,29.73
2018-08-10T00:17:39.093Z,29.7
2018-08-10T00:18:19.932Z,29.78
2018-08-10T00:19:00.723Z,29.63
2018-08-10T00:19:41.575Z,29.63
2018-08-10T00:20:22.276Z,29.67
2018-08-10T00:21:03.070Z,29.68
2018-08-10T00:21:43.922Z,29.67
2018-08-10T00:22:39.215Z,29.64
2018-08-10T00:23:19.960Z,29.64
2018-08-10T00:24:00.698Z,29.65
2018-08-10T00:24:41.484Z,29.68
2018-08-10T00:25:22.309Z,29.73
2018-08-10T00:26:03.109Z,29.65
2018-08-10T00:26:43.896Z,29.53
2018-08-10T00:27:24.731Z,29.64
2018-08-10T00:28:05.552Z,29.7
2018-08-10T00:28:46.332Z,29.58
2018-08-10T00:29:27.078Z,29.61
2018-08-10T00:30:07.850Z,29.57
2018-08-10T00:30:48.636Z,29.57
2018-08-10T00:31:29.496Z,29.57
2018-08-10T00:32:10.316Z,29.65
2018-08-10T00:32:51.149Z,29.64
2018-08-10T00:33:31.885Z,29.67
2018-08-10T00:34:12.654Z,29.67
2018-08-10T00:34:53.534Z,29.57
2018-08-10T00:35:34.283Z,29.55
2018-08-10T00:36:15.048Z,29.57
2018-08-10T00:36:55.804Z,29.64
2018-08-10T00:37:36.572Z,29.58
2018-08-10T00:38:17.500Z,29.71
2018-08-10T00:38:58.308Z,29.53
2018-08-10T00:39:39.114Z,29.6
2018-08-10T00:40:19.839Z,29.64
2018-08-10T00:41:00.607Z,29.58
2018-08-10T00:41:41.393Z,29.58
2018-08-10T00:42:22.241Z,29.71
2018-08-10T00:43:02.990Z,29.63
2018-08-10T00:43:43.739Z,29.68
2018-08-10T00:44:24.557Z,29.71
2018-08-10T00:45:05.344Z,29.7
2018-08-10T00:45:46.203Z,29.57
2018-08-10T00:46:26.944Z,29.58
2018-08-10T00:47:07.684Z,29.64
2018-08-10T00:47:48.396Z,29.64
2018-08-10T00:48:29.150Z,29.67
2018-08-10T00:49:09.988Z,29.63
2018-08-10T00:49:50.798Z,29.64
2018-08-10T00:50:31.580Z,29.61
2018-08-10T00:51:12.330Z,29.61
2018-08-10T00:51:53.128Z,29.58
2018-08-10T00:52:33.928Z,29.57
2018-08-10T00:53:14.681Z,29.53
2018-08-10T00:53:55.398Z,29.57
2018-08-10T00:54:36.226Z,29.57
2018-08-10T00:55:17.046Z,29.6
2018-08-10T00:55:57.899Z,29.57
2018-08-10T00:56:38.641Z,29.64
2018-08-10T00:57:19.432Z,29.53
2018-08-10T00:58:00.248Z,29.6
2018-08-10T00:58:41.085Z,29.57
2018-08-10T00:59:23.433Z,29.63
2018-08-10T01:00:04.206Z,29.57
2018-08-10T01:00:45.034Z,29.57
2018-08-10T01:01:25.841Z,29.57
2018-08-10T01:02:06.595Z,29.61
2018-08-10T01:02:47.314Z,29.61
2018-08-10T01:03:28.127Z,29.57
2018-08-10T01:04:09.062Z,29.57
2018-08-10T01:04:49.852Z,29.52
2018-08-10T01:05:30.669Z,29.51
2018-08-10T01:06:11.451Z,29.52
2018-08-10T01:06:52.176Z,29.53
2018-08-10T01:07:32.908Z,29.49
2018-08-10T01:08:13.672Z,29.46
2018-08-10T01:08:54.458Z,29.51
2018-08-10T01:09:35.174Z,29.45
2018-08-10T01:10:15.953Z,29.51
2018-08-10T01:10:56.810Z,29.46
2018-08-10T01:11:37.636Z,29.43
2018-08-10T01:12:18.394Z,29.42
2018-08-10T01:13:01.953Z,29.43
2018-08-10T01:13:42.795Z,29.49
2018-08-10T01:14:23.560Z,29.41
2018-08-10T01:15:04.332Z,29.48
2018-08-10T01:15:45.081Z,29.45
2018-08-10T01:16:25.820Z,29.42
2018-08-10T01:17:06.620Z,29.43
2018-08-10T01:17:47.429Z,29.43
2018-08-10T01:18:28.267Z,29.46
2018-08-10T01:19:09.169Z,29.43
2018-08-10T01:19:49.874Z,29.49
2018-08-10T01:20:30.669Z,29.48
2018-08-10T01:21:11.454Z,29.45
2018-08-10T01:21:52.173Z,29.46
2018-08-10T01:22:32.950Z,29.43
2018-08-10T01:23:13.686Z,29.52
2018-08-10T01:23:54.625Z,29.46
2018-08-10T01:24:35.525Z,29.46
2018-08-10T01:25:16.352Z,29.46
2018-08-10T01:25:57.102Z,29.49
2018-08-10T01:26:37.908Z,29.48
2018-08-10T01:27:18.731Z,29.46
2018-08-10T01:27:59.506Z,29.43
2018-08-10T01:28:40.270Z,29.43
2018-08-10T01:29:20.978Z,29.42
2018-08-10T01:30:01.872Z,29.46
2018-08-10T01:30:42.626Z,29.46
2018-08-10T01:31:23.350Z,29.45
2018-08-10T01:32:04.184Z,29.42
2018-08-10T01:32:44.993Z,29.42
2018-08-10T01:33:25.824Z,29.42
2018-08-10T01:34:06.605Z,29.43
2018-08-10T01:34:47.318Z,29.49
2018-08-10T01:35:28.206Z,29.45
2018-08-10T01:36:09.010Z,29.48
2018-08-10T01:36:49.726Z,29.46
2018-08-10T01:37:30.434Z,29.39
2018-08-10T01:38:11.179Z,29.36
2018-08-10T01:38:52.011Z,29.43
2018-08-10T01:39:32.769Z,29.37
2018-08-10T01:40:13.637Z,29.37
2018-08-10T01:40:54.392Z,29.31
2018-08-10T01:41:35.140Z,29.34
2018-08-10T01:42:15.868Z,29.41
2018-08-10T01:42:56.701Z,29.37
2018-08-10T01:43:37.490Z,29.41
2018-08-10T01:44:18.213Z,29.33
2018-08-10T01:44:58.982Z,29.27
2018-08-10T01:45:39.809Z,29.28
2018-08-10T01:46:20.671Z,29.34
2018-08-10T01:47:01.440Z,29.31
2018-08-10T01:47:42.134Z,29.24
2018-08-10T01:48:22.884Z,29.23
2018-08-10T01:49:03.635Z,29.26
2018-08-10T01:49:44.458Z,29.23
2018-08-10T01:50:25.301Z,29.21
2018-08-10T01:51:06.144Z,29.31
2018-08-10T01:51:46.900Z,29.3
2018-08-10T01:52:27.669Z,29.24
2018-08-10T01:53:08.503Z,29.23
2018-08-10T01:53:49.295Z,29.23
2018-08-10T01:54:31.159Z,29.26
2018-08-10T01:55:11.176Z,29.24
2018-08-10T01:55:51.975Z,29.27
2018-08-10T01:56:32.855Z,29.19
2018-08-10T01:57:13.714Z,29.31
2018-08-10T01:57:54.496Z,29.21
2018-08-10T01:58:35.282Z,29.26
2018-08-10T01:59:16.056Z,29.23
2018-08-10T01:59:56.768Z,29.24
2018-08-10T02:00:37.615Z,29.16
2018-08-10T02:01:18.435Z,29.28
2018-08-10T02:01:59.177Z,29.15
2018-08-10T02:02:40.035Z,29.24
2018-08-10T02:03:20.917Z,29.18
2018-08-10T02:04:01.806Z,29.23
2018-08-10T02:04:42.544Z,29.21
2018-08-10T02:05:23.279Z,29.21
2018-08-10T02:06:04.101Z,29.24
2018-08-10T02:06:44.885Z,29.27
2018-08-10T02:07:25.644Z,29.21
2018-08-10T02:08:06.392Z,29.24
2018-08-10T02:08:47.178Z,29.26
2018-08-10T02:09:28.003Z,29.24
2018-08-10T02:10:08.782Z,29.26
2018-08-10T02:10:49.530Z,29.26
2018-08-10T02:11:30.384Z,29.27
2018-08-10T02:12:11.188Z,29.33
2018-08-10T02:12:52.091Z,29.23
2018-08-10T02:13:32.851Z,29.31
2018-08-10T02:14:13.634Z,29.23
2018-08-10T02:14:54.385Z,29.27
2018-08-10T02:15:35.223Z,29.24
2018-08-10T02:16:16.049Z,29.19
2018-08-10T02:16:56.939Z,29.3
2018-08-10T02:17:37.723Z,29.28
2018-08-10T02:18:18.481Z,29.27
2018-08-10T02:18:59.321Z,29.33
2018-08-10T02:19:40.089Z,29.34
2018-08-10T02:20:20.826Z,29.3
2018-08-10T02:21:01.560Z,29.24
2018-08-10T02:21:42.292Z,29.24
2018-08-10T02:22:23.095Z,29.19
2018-08-10T02:23:03.888Z,29.24
2018-08-10T02:23:44.659Z,29.24
2018-08-10T02:24:25.557Z,29.19
2018-08-10T02:25:06.365Z,29.3
2018-08-10T02:25:47.191Z,29.28
2018-08-10T02:26:27.920Z,29.23
2018-08-10T02:27:08.676Z,29.21
2018-08-10T02:27:49.528Z,29.24
2018-08-10T02:28:32.025Z,29.26
2018-08-10T02:29:12.800Z,29.28
2018-08-10T02:29:53.527Z,29.21
2018-08-10T02:30:34.312Z,29.24
2018-08-10T02:31:15.115Z,29.24
2018-08-10T02:31:55.961Z,29.28
2018-08-10T02:32:36.772Z,29.27
2018-08-10T02:33:17.505Z,29.24
2018-08-10T02:33:58.235Z,29.28
2018-08-10T02:34:38.999Z,29.19
2018-08-10T02:35:19.868Z,29.21
2018-08-10T02:36:00.675Z,29.27
2018-08-10T02:36:41.430Z,29.19
2018-08-10T02:37:22.266Z,29.19
2018-08-10T02:38:03.048Z,29.24
2018-08-10T02:38:43.881Z,29.23
2018-08-10T02:39:24.608Z,29.18
2018-08-10T02:40:05.436Z,29.19
2018-08-10T02:40:46.289Z,29.21
2018-08-10T02:41:27.060Z,29.18
2018-08-10T02:42:07.791Z,29.15
2018-08-10T02:42:48.511Z,29.24
2018-08-10T02:43:29.261Z,29.15
2018-08-10T02:44:10.081Z,29.15
2018-08-10T02:44:50.890Z,29.24
2018-08-10T02:45:31.585Z,29.23
2018-08-10T02:46:12.438Z,29.26
2018-08-10T02:46:53.309Z,29.26
2018-08-10T02:47:34.133Z,29.23
2018-08-10T02:48:14.898Z,29.23
2018-08-10T02:48:55.639Z,29.26
2018-08-10T02:49:36.358Z,29.26
2018-08-10T02:50:17.150Z,29.15
2018-08-10T02:50:58.019Z,29.15
2018-08-10T02:51:38.895Z,29.23
2018-08-10T02:52:19.677Z,29.24
2018-08-10T02:53:00.419Z,29.21
2018-08-10T02:53:41.215Z,29.19
2018-08-10T02:54:22.014Z,29.26
2018-08-10T02:55:02.787Z,29.18
2018-08-10T02:55:43.552Z,29.26
2018-08-10T02:56:24.253Z,29.24
2018-08-10T02:57:05.115Z,29.18
2018-08-10T02:57:45.944Z,29.24
2018-08-10T02:58:26.752Z,29.18
2018-08-10T02:59:07.566Z,29.23
2018-08-10T02:59:48.266Z,29.16
2018-08-10T03:00:29.029Z,29.18
2018-08-10T03:01:09.827Z,29.15
2018-08-10T03:01:50.636Z,29.16
2018-08-10T03:02:31.378Z,29.19
2018-08-10T03:03:12.169Z,29.24
2018-08-10T03:03:52.957Z,29.19
2018-08-10T03:04:33.811Z,29.26
2018-08-10T03:05:14.594Z,29.24
2018-08-10T03:05:55.364Z,29.24
2018-08-10T03:06:36.087Z,29.18
2018-08-10T03:07:16.825Z,29.15
2018-08-10T03:07:57.684Z,29.23
2018-08-10T03:08:38.526Z,29.26
2018-08-10T03:09:19.342Z,29.16
2018-08-10T03:10:00.121Z,29.15
2018-08-10T03:10:40.830Z,29.14
2018-08-10T03:11:21.742Z,29.21
2018-08-10T03:12:02.532Z,29.24
2018-08-10T03:12:43.286Z,29.12
2018-08-10T03:13:23.990Z,29.09
2018-08-10T03:14:04.796Z,29.05
2018-08-10T03:14:45.603Z,29
2018-08-10T03:15:26.367Z,29.16
2018-08-10T03:16:07.082Z,29.12
2018-08-10T03:16:47.908Z,29.08
2018-08-10T03:17:28.734Z,29.09
2018-08-10T03:18:09.578Z,29.23
2018-08-10T03:18:50.318Z,29.19
2018-08-10T03:19:31.137Z,29.11
2018-08-10T03:20:11.905Z,29.14
2018-08-10T03:20:52.682Z,29.18
2018-08-10T03:21:33.396Z,29.15
2018-08-10T03:22:14.143Z,29.05
2018-08-10T03:22:54.939Z,29.08
2018-08-10T03:23:35.764Z,29.09
2018-08-10T03:24:16.615Z,29.06
2018-08-10T03:24:57.419Z,29.08
2018-08-10T03:25:38.172Z,29.09
2018-08-10T03:26:18.906Z,29.08
2018-08-10T03:26:59.653Z,29.15
2018-08-10T03:27:40.493Z,29.11
2018-08-10T03:28:21.299Z,29.15
2018-08-10T03:29:02.044Z,29.14
2018-08-10T03:29:42.883Z,29.19
2018-08-10T03:30:23.706Z,29.12
2018-08-10T03:31:04.530Z,29.16
2018-08-10T03:31:45.328Z,29.21
2018-08-10T03:32:26.059Z,29.14
2018-08-10T03:33:06.834Z,29.16
2018-08-10T03:33:47.590Z,29.21
2018-08-10T03:34:30.113Z,29.26
2018-08-10T03:35:12.870Z,29.08
2018-08-10T03:35:53.668Z,29.15
2018-08-10T03:36:34.467Z,29.14
2018-08-10T03:37:15.239Z,29.02
2018-08-10T03:37:56.156Z,29.09
2018-08-10T03:38:36.861Z,29.11
2018-08-10T03:39:17.609Z,29.15
2018-08-10T03:40:00.046Z,29.12
2018-08-10T03:40:40.885Z,29.15
2018-08-10T03:41:21.707Z,29.08
2018-08-10T03:42:02.548Z,29.12
2018-08-10T03:42:43.315Z,29.11
2018-08-10T03:43:24.095Z,29.11
2018-08-10T03:44:04.828Z,29.09
2018-08-10T03:44:45.598Z,29.16
2018-08-10T03:45:26.459Z,29.11
2018-08-10T03:46:07.246Z,29.14
2018-08-10T03:46:47.998Z,29.21
2018-08-10T03:47:28.848Z,29.15
2018-08-10T03:48:09.633Z,29.12
2018-08-10T03:48:50.487Z,29.14
2018-08-10T03:49:31.228Z,29.12
2018-08-10T03:50:11.992Z,29.12
2018-08-10T03:50:52.832Z,29.12
2018-08-10T03:51:33.600Z,29.14
2018-08-10T03:52:14.347Z,29.09
2018-08-10T03:52:55.166Z,29.09
2018-08-10T03:53:35.952Z,29
2018-08-10T03:54:16.805Z,29.06
2018-08-10T03:54:57.563Z,28.98
2018-08-10T03:55:38.310Z,28.98
2018-08-10T03:56:19.180Z,28.95
2018-08-10T03:56:59.957Z,29.05
2018-08-10T03:57:40.763Z,29
2018-08-10T03:58:21.471Z,29.05
2018-08-10T03:59:02.213Z,29.02
2018-08-10T03:59:42.994Z,29.04
2018-08-10T04:00:23.847Z,29.12
2018-08-10T04:01:04.690Z,29.02
2018-08-10T04:01:45.544Z,29.08
2018-08-10T04:02:26.364Z,29.09
2018-08-10T04:03:07.132Z,29.08
2018-08-10T04:03:47.996Z,29.15
2018-08-10T04:04:28.786Z,29.18
2018-08-10T04:05:09.552Z,29.12
2018-08-10T04:05:50.277Z,29.04
2018-08-10T04:06:31.045Z,29.11
2018-08-10T04:07:11.972Z,29.16
2018-08-10T04:07:52.839Z,29.14
2018-08-10T04:08:33.686Z,29.11
2018-08-10T04:09:14.451Z,29.12
2018-08-10T04:09:55.223Z,29.08
2018-08-10T04:10:35.990Z,29.18
2018-08-10T04:11:16.842Z,29.12
2018-08-10T04:11:57.701Z,29.11
2018-08-10T04:12:38.411Z,29.16
2018-08-10T04:13:19.254Z,29.15
2018-08-10T04:14:00.076Z,29.04
2018-08-10T04:14:40.886Z,29.02
2018-08-10T04:15:21.715Z,29.18
2018-08-10T04:16:02.483Z,29.02
2018-08-10T04:16:43.221Z,29.05
2018-08-10T04:17:23.984Z,28.98
2018-08-10T04:18:04.841Z,29.09
2018-08-10T04:18:45.655Z,29.02
2018-08-10T04:19:26.444Z,29
2018-08-10T04:20:07.190Z,28.98
2018-08-10T04:20:47.967Z,29
2018-08-10T04:21:28.881Z,29.06
2018-08-10T04:22:09.630Z,29.06
2018-08-10T04:22:50.395Z,29.06
2018-08-10T04:23:31.157Z,28.93
2018-08-10T04:24:11.953Z,29.06
2018-08-10T04:24:52.773Z,28.98
2018-08-10T04:25:33.510Z,28.93
2018-08-10T04:26:14.243Z,29.08
2018-08-10T04:26:55.094Z,29.05
2018-08-10T04:27:35.919Z,29
2018-08-10T04:28:16.741Z,29.08
2018-08-10T04:28:57.496Z,29.08
2018-08-10T04:29:38.258Z,28.95
2018-08-10T04:30:19.134Z,29.02
2018-08-10T04:30:59.924Z,29.08
2018-08-10T04:31:40.722Z,29.18
2018-08-10T04:32:21.452Z,29.12
2018-08-10T04:33:02.285Z,29.08
2018-08-10T04:33:43.159Z,29.12
2018-08-10T04:34:24.024Z,29.14
2018-08-10T04:35:04.816Z,29
2018-08-10T04:35:45.513Z,29.18
2018-08-10T04:36:26.259Z,29.21
2018-08-10T04:37:07.102Z,29.08
2018-08-10T04:37:47.952Z,29.02
2018-08-10T04:38:28.755Z,29.16
2018-08-10T04:39:09.503Z,29.11
2018-08-10T04:39:50.336Z,29.09
2018-08-10T04:40:31.167Z,29.06
2018-08-10T04:41:11.977Z,29
2018-08-10T04:41:52.720Z,29.08
2018-08-10T04:42:33.533Z,28.98
2018-08-10T04:43:14.364Z,29.04
2018-08-10T04:43:55.096Z,29.06
2018-08-10T04:44:35.840Z,29.06
2018-08-10T04:45:16.546Z,29
2018-08-10T04:45:57.389Z,29.12
2018-08-10T04:46:38.244Z,29.02
2018-08-10T04:47:18.941Z,29.02
2018-08-10T04:47:59.731Z,29.06
2018-08-10T04:48:40.537Z,29.14
2018-08-10T04:49:21.363Z,29.15
2018-08-10T04:50:02.206Z,29.14
2018-08-10T04:50:42.986Z,29.02
2018-08-10T04:51:23.756Z,29.04
2018-08-10T04:52:04.541Z,29.18
2018-08-10T04:52:45.387Z,29.05
2018-08-10T04:53:26.225Z,29.08
2018-08-10T04:54:07.096Z,29.02
2018-08-10T04:54:47.848Z,28.98
2018-08-10T04:55:28.656Z,29.08
2018-08-10T04:56:09.434Z,29.04
2018-08-10T04:56:50.218Z,29.06
2018-08-10T04:57:30.942Z,29
2018-08-10T04:58:11.675Z,29.05
2018-08-10T04:58:52.428Z,29.05
2018-08-10T04:59:33.255Z,29.04
2018-08-10T05:00:14.035Z,29.06
2018-08-10T05:00:54.827Z,29.09
2018-08-10T05:01:35.614Z,29.08
2018-08-10T05:02:16.446Z,28.95
2018-08-10T05:02:57.274Z,28.96
2018-08-10T05:03:37.982Z,28.96
2018-08-10T05:04:18.932Z,28.88
2018-08-10T05:04:59.787Z,29
2018-08-10T05:05:40.523Z,29.11
2018-08-10T05:06:21.329Z,28.95
2018-08-10T05:07:02.535Z,28.98
2018-08-10T05:07:43.563Z,28.95
2018-08-10T05:08:24.404Z,28.96
2018-08-10T05:09:05.251Z,29.09
2018-08-10T05:09:46.062Z,29
2018-08-10T05:10:26.789Z,29.11
2018-08-10T05:11:07.549Z,29
2018-08-10T05:11:48.293Z,28.95
2018-08-10T05:12:29.154Z,28.95
2018-08-10T05:13:09.919Z,28.89
2018-08-10T05:13:50.697Z,28.88
2018-08-10T05:14:31.575Z,28.92
2018-08-10T05:15:12.357Z,28.96
2018-08-10T05:15:53.204Z,29.06
2018-08-10T05:16:33.973Z,29.09
2018-08-10T05:17:14.699Z,29.02
2018-08-10T05:17:55.453Z,29.09
2018-08-10T05:18:36.238Z,29.06
2018-08-10T05:19:17.073Z,29.05
2018-08-10T05:19:57.925Z,29.14
2018-08-10T05:20:38.680Z,29.12
2018-08-10T05:21:19.379Z,29.16
2018-08-10T05:22:00.250Z,29
2018-08-10T05:22:40.977Z,29.06
2018-08-10T05:23:21.703Z,29.09
2018-08-10T05:24:02.442Z,29.08
2018-08-10T05:24:43.215Z,29.15
2018-08-10T05:25:24.035Z,29.14
2018-08-10T05:26:04.868Z,29.05
2018-08-10T05:26:45.739Z,29.11
2018-08-10T05:27:26.459Z,29.12
2018-08-10T05:28:07.170Z,29.05
2018-08-10T05:28:47.910Z,29.11
2018-08-10T05:29:28.739Z,29.12
2018-08-10T05:30:09.565Z,28.98
2018-08-10T05:30:50.320Z,29.02
2018-08-10T05:31:31.126Z,29.04
2018-08-10T05:32:11.971Z,29.23
2018-08-10T05:32:52.786Z,29.19
2018-08-10T05:33:33.786Z,29.15
2018-08-10T05:34:14.529Z,29.14
2018-08-10T05:34:55.385Z,29.15
2018-08-10T05:35:36.101Z,29.15
2018-08-10T05:36:16.836Z,29.21
2018-08-10T05:36:57.559Z,29.18
2018-08-10T05:37:38.358Z,29.27
2018-08-10T05:38:19.173Z,29.24
2018-08-10T05:38:59.991Z,29.23
2018-08-10T05:39:40.709Z,29.28
2018-08-10T05:40:21.712Z,29.15
2018-08-10T05:41:02.468Z,29.23
2018-08-10T05:41:43.302Z,29.15
2018-08-10T05:42:24.116Z,29.23
2018-08-10T05:43:04.853Z,29.16
2018-08-10T05:43:45.650Z,29.26
2018-08-10T05:44:26.415Z,29.27
2018-08-10T05:45:07.296Z,29.18
2018-08-10T05:45:48.109Z,29.31
2018-08-10T05:46:28.999Z,29.27
2018-08-10T05:47:10.287Z,29.23
2018-08-10T05:47:51.086Z,29.34
2018-08-10T05:48:31.924Z,29.3
2018-08-10T05:49:12.704Z,29.34
2018-08-10T05:49:53.465Z,29.3
2018-08-10T05:50:34.174Z,29.36
2018-08-10T05:51:14.975Z,29.39
2018-08-10T05:51:55.858Z,29.34
2018-08-10T05:52:36.921Z,29.37
2018-08-10T05:53:17.671Z,29.45
2018-08-10T05:53:58.805Z,29.45
2018-08-10T05:54:39.586Z,29.48
2018-08-10T05:55:20.410Z,29.42
2018-08-10T05:56:01.235Z,29.41
2018-08-10T05:56:42.155Z,29.42
2018-08-10T05:57:24.789Z,29.39
2018-08-10T05:58:05.606Z,29.33
2018-08-10T05:58:46.432Z,29.36
2018-08-10T05:59:27.303Z,29.33
2018-08-10T06:00:09.246Z,29.41
2018-08-10T06:00:50.915Z,29.39
2018-08-10T06:01:31.426Z,29.41
2018-08-10T06:02:12.261Z,29.36
2018-08-10T06:02:53.188Z,29.49
2018-08-10T06:03:34.119Z,29.51
2018-08-10T06:04:14.788Z,29.49
2018-08-10T06:04:55.478Z,29.46
2018-08-10T06:05:36.300Z,29.48
2018-08-10T06:06:17.121Z,29.45
2018-08-10T06:06:57.852Z,29.41
2018-08-10T06:07:38.695Z,29.39
2018-08-10T06:08:19.457Z,29.49
2018-08-10T06:09:00.304Z,29.46
2018-08-10T06:09:43.657Z,29.49
2018-08-10T06:10:24.410Z,29.37
2018-08-10T06:11:05.258Z,29.46
2018-08-10T06:11:46.137Z,29.46
2018-08-10T06:12:26.989Z,29.49
2018-08-10T06:13:07.795Z,29.49
2018-08-10T06:13:48.516Z,29.46
2018-08-10T06:14:29.338Z,29.48
2018-08-10T06:15:10.074Z,29.49
2018-08-10T06:15:50.818Z,29.46
2018-08-10T06:16:31.566Z,29.49
2018-08-10T06:17:12.415Z,29.42
2018-08-10T06:17:53.251Z,29.46
2018-08-10T06:18:34.090Z,29.45
2018-08-10T06:19:14.870Z,29.52
2018-08-10T06:19:55.693Z,29.49
2018-08-10T06:20:36.404Z,29.48
2018-08-10T06:21:17.147Z,29.46
2018-08-10T06:21:58.035Z,29.53
2018-08-10T06:22:38.811Z,29.57
2018-08-10T06:23:19.553Z,29.68
2018-08-10T06:24:00.401Z,29.65
2018-08-10T06:24:41.242Z,29.65
2018-08-10T06:25:22.122Z,29.63
2018-08-10T06:26:02.920Z,29.7
2018-08-10T06:26:43.614Z,29.68
2018-08-10T06:27:24.372Z,29.71
2018-08-10T06:28:05.150Z,29.76
2018-08-10T06:28:46.000Z,29.79
2018-08-10T06:29:26.811Z,29.8
2018-08-10T06:30:07.607Z,29.85
2018-08-10T06:30:48.300Z,29.85
2018-08-10T06:31:29.126Z,30
2018-08-10T06:32:09.923Z,30.02
2018-08-10T06:32:50.667Z,29.98
2018-08-10T06:33:31.408Z,30.05
2018-08-10T06:34:12.182Z,30.24
2018-08-10T06:34:53.004Z,30.39
2018-08-10T06:35:33.800Z,30.53
2018-08-10T06:36:14.645Z,30.54
2018-08-10T06:36:55.372Z,30.49
2018-08-10T06:37:36.167Z,30.6
2018-08-10T06:38:16.896Z,30.61
2018-08-10T06:38:57.730Z,30.73
2018-08-10T06:39:40.383Z,30.65
2018-08-10T06:40:21.153Z,30.77
2018-08-10T06:41:01.919Z,30.72
2018-08-10T06:41:42.774Z,30.92
2018-08-10T06:42:23.603Z,30.97
2018-08-10T06:43:04.407Z,30.91
2018-08-10T06:43:45.117Z,30.88
2018-08-10T06:44:25.936Z,30.97
2018-08-10T06:45:06.785Z,30.94
2018-08-10T06:45:47.440Z,30.88
2018-08-10T06:46:28.234Z,30.88
2018-08-10T06:47:08.988Z,30.91
2018-08-10T06:47:49.791Z,30.95
2018-08-10T06:48:30.575Z,31.07
2018-08-10T06:49:11.358Z,31.04
2018-08-10T06:49:52.195Z,31.13
2018-08-10T06:50:32.975Z,31.09
2018-08-10T06:51:13.930Z,31.04
2018-08-10T06:51:54.655Z,31.04
2018-08-10T06:52:35.393Z,31.06
2018-08-10T06:53:16.145Z,30.95
2018-08-10T06:53:56.886Z,30.89
2018-08-10T06:54:37.799Z,30.95
2018-08-10T06:55:18.657Z,30.83
2018-08-10T06:55:59.467Z,30.86
2018-08-10T06:56:40.241Z,30.92
2018-08-10T06:57:21.022Z,30.89
2018-08-10T06:58:01.823Z,30.92
2018-08-10T06:58:42.585Z,31.01
2018-08-10T06:59:23.313Z,31.09
2018-08-10T07:00:04.084Z,30.99
2018-08-10T07:00:44.999Z,31.09
2018-08-10T07:01:25.700Z,31.23
2018-08-10T07:02:06.472Z,31.12
2018-08-10T07:02:47.265Z,31.21
2018-08-10T07:03:28.070Z,31.2
2018-08-10T07:04:08.892Z,31.25
2018-08-10T07:04:49.738Z,31.2
2018-08-10T07:05:30.439Z,31.21
2018-08-10T07:06:11.237Z,31.29
2018-08-10T07:06:52.017Z,31.31
2018-08-10T07:07:32.841Z,31.32
2018-08-10T07:08:13.504Z,31.28
2018-08-10T07:08:54.276Z,31.29
2018-08-10T07:09:35.087Z,31.32
2018-08-10T07:10:15.915Z,31.43
2018-08-10T07:10:56.752Z,31.43
2018-08-10T07:11:37.609Z,31.41
2018-08-10T07:12:18.394Z,31.44
2018-08-10T07:12:59.146Z,31.47
2018-08-10T07:13:39.954Z,31.48
2018-08-10T07:14:20.682Z,31.41
2018-08-10T07:15:01.482Z,31.35
2018-08-10T07:15:42.208Z,31.43
2018-08-10T07:16:23.097Z,31.32
2018-08-10T07:17:03.923Z,31.29
2018-08-10T07:17:44.794Z,31.23
2018-08-10T07:18:25.651Z,31.34
2018-08-10T07:19:06.520Z,31.41
2018-08-10T07:19:47.417Z,31.39
2018-08-10T07:20:28.192Z,31.29
2018-08-10T07:21:08.942Z,31.2
2018-08-10T07:21:49.693Z,30.92
2018-08-10T07:22:30.480Z,30.7
2018-08-10T07:23:11.303Z,30.62
2018-08-10T07:23:52.088Z,30.58
2018-08-10T07:24:32.803Z,30.39
2018-08-10T07:25:13.686Z,30.35
2018-08-10T07:25:54.520Z,30.57
2018-08-10T07:26:35.357Z,30.7
2018-08-10T07:27:16.222Z,30.7
2018-08-10T07:27:56.919Z,30.7
2018-08-10T07:28:37.759Z,30.62
2018-08-10T07:29:18.581Z,30.51
2018-08-10T07:29:59.385Z,30.49
2018-08-10T07:30:40.244Z,30.43
2018-08-10T07:31:21.054Z,30.42
2018-08-10T07:32:01.823Z,30.45
2018-08-10T07:32:42.713Z,30.65
2018-08-10T07:33:23.475Z,30.8
2018-08-10T07:34:04.209Z,31.02
2018-08-10T07:34:44.968Z,31.29
2018-08-10T07:35:25.762Z,31.19
2018-08-10T07:36:06.672Z,31.26
2018-08-10T07:36:47.534Z,31.43
2018-08-10T07:37:28.340Z,31.63
2018-08-10T07:38:09.101Z,31.53
2018-08-10T07:38:49.854Z,31.63
2018-08-10T07:39:30.572Z,31.62
2018-08-10T07:40:11.405Z,31.72
2018-08-10T07:40:52.204Z,31.95
2018-08-10T07:41:32.970Z,32
2018-08-10T07:42:13.869Z,32.06
2018-08-10T07:42:54.691Z,32.32
2018-08-10T07:43:35.516Z,32.5
2018-08-10T07:44:19.138Z,32.56
2018-08-10T07:44:59.887Z,32.72
2018-08-10T07:45:40.642Z,32.79
2018-08-10T07:46:21.431Z,32.84
2018-08-10T07:47:02.225Z,32.79
2018-08-10T07:47:43.059Z,32.75
2018-08-10T07:48:23.888Z,32.96
2018-08-10T07:49:04.612Z,33.21
2018-08-10T07:49:45.389Z,33.37
2018-08-10T07:50:26.207Z,33.39
2018-08-10T07:51:07.001Z,33.49
2018-08-10T07:51:47.761Z,33.53
2018-08-10T07:52:28.472Z,33.63
2018-08-10T07:53:09.262Z,33.75
2018-08-10T07:53:50.081Z,33.82
2018-08-10T07:54:30.875Z,33.9
2018-08-10T07:55:11.750Z,33.84
2018-08-10T07:55:52.675Z,33.97
2018-08-10T07:56:33.587Z,33.56
2018-08-10T07:57:14.363Z,33.11
2018-08-10T07:57:55.119Z,32.85
2018-08-10T07:58:36.026Z,33.11
2018-08-10T07:59:16.910Z,33.44
2018-08-10T07:59:57.788Z,33.69
2018-08-10T08:00:38.556Z,33.88
2018-08-10T08:01:19.324Z,34.02
2018-08-10T08:02:00.222Z,34.17
2018-08-10T08:02:41.051Z,34.43
2018-08-10T08:03:23.514Z,34.53
2018-08-10T08:04:04.272Z,34.72
2018-08-10T08:04:45.039Z,34.78
2018-08-10T08:05:25.751Z,34.84
2018-08-10T08:06:06.574Z,34.92
2018-08-10T08:06:47.449Z,34.84
2018-08-10T08:07:30.091Z,34.54
2018-08-10T08:08:10.886Z,34.15
2018-08-10T08:08:55.774Z,33.71
2018-08-10T08:09:36.592Z,33.16
2018-08-10T08:10:17.468Z,33.59
2018-08-10T08:10:58.237Z,34.08
2018-08-10T08:11:39.003Z,34.34
2018-08-10T08:12:19.773Z,34.5
2018-08-10T08:13:00.537Z,34.81
2018-08-10T08:13:41.473Z,34.75
2018-08-10T08:14:22.290Z,34.92
2018-08-10T08:15:03.045Z,35.03
2018-08-10T08:15:44.185Z,34.97
2018-08-10T08:16:25.112Z,35.23
2018-08-10T08:17:06.079Z,35.19
2018-08-10T08:17:46.777Z,35.37
2018-08-10T08:18:27.625Z,35.47
2018-08-10T08:19:08.377Z,35.5
2018-08-10T08:19:49.407Z,35.53
2018-08-10T08:20:30.203Z,34.58
2018-08-10T08:21:10.993Z,33.88
2018-08-10T08:21:51.842Z,33.38
2018-08-10T08:22:32.634Z,32.78
2018-08-10T08:23:13.373Z,32.43
2018-08-10T08:23:54.201Z,32.07
2018-08-10T08:24:35.016Z,31.8
2018-08-10T08:25:15.952Z,31.62
2018-08-10T08:25:56.829Z,31.47
2018-08-10T08:26:37.725Z,31.32
2018-08-10T08:27:18.546Z,31.16
2018-08-10T08:27:59.403Z,31.07
2018-08-10T08:28:40.175Z,30.91
2018-08-10T08:29:21.112Z,30.92
2018-08-10T08:30:02.100Z,30.88
2018-08-10T08:30:42.808Z,30.75
2018-08-10T08:31:23.615Z,30.72
2018-08-10T08:32:04.477Z,30.65
2018-08-10T08:32:45.364Z,30.65
2018-08-10T08:33:26.134Z,30.6
2018-08-10T08:34:06.890Z,30.55
2018-08-10T08:34:47.691Z,30.46
2018-08-10T08:35:28.529Z,30.38
2018-08-10T08:36:09.409Z,30.49
2018-08-10T08:36:51.926Z,30.37
2018-08-10T08:37:32.655Z,30.49
2018-08-10T08:38:13.415Z,30.38
2018-08-10T08:38:54.175Z,30.47
2018-08-10T08:39:35.044Z,30.45
2018-08-10T08:40:15.887Z,30.49
2018-08-10T08:40:56.755Z,30.47
2018-08-10T08:41:37.524Z,30.46
2018-08-10T08:42:18.304Z,30.69
2018-08-10T08:42:59.149Z,30.77
2018-08-10T08:43:39.980Z,30.94
2018-08-10T08:44:20.762Z,30.89
2018-08-10T08:45:01.591Z,30.72
2018-08-10T08:45:42.651Z,30.67
2018-08-10T08:46:23.527Z,30.6
2018-08-10T08:47:04.221Z,30.45
2018-08-10T08:47:45.003Z,30.53
2018-08-10T08:48:25.734Z,30.49